createdAt,value
2022-11-24T00:01:29.818Z,8.51
2022-11-24T00:03:58.272Z,8.52
2022-11-24T00:06:25.819Z,8.58
2022-11-24T00:08:53.346Z,8.63
2022-11-24T00:11:23.263Z,8.67
2022-11-24T00:13:50.473Z,8.80
2022-11-24T00:16:21.387Z,8.84
2022-11-24T00:18:49.782Z,8.87
2022-11-24T00:21:17.910Z,8.88
2022-11-24T00:27:45.717Z,8.92
2022-11-24T00:30:12.886Z,8.94
2022-11-24T00:32:39.386Z,8.90
2022-11-24T00:35:06.503Z,8.83
2022-11-24T00:37:33.043Z,8.86
2022-11-24T00:39:59.628Z,8.82
2022-11-24T00:42:26.134Z,8.72
2022-11-24T00:44:52.819Z,8.75
2022-11-24T00:47:19.412Z,8.67
2022-11-24T00:49:46.005Z,8.78
2022-11-24T00:52:12.650Z,8.72
2022-11-24T00:54:39.474Z,8.68
2022-11-24T00:57:06.044Z,8.62
2022-11-24T00:59:32.615Z,8.64
2022-11-24T01:01:59.228Z,8.70
2022-11-24T01:04:25.895Z,8.70
2022-11-24T01:06:52.608Z,8.82
2022-11-24T01:09:19.099Z,8.82
2022-11-24T01:12:04.301Z,8.94
2022-11-24T01:14:32.026Z,8.91
2022-11-24T01:16:59.082Z,8.91
2022-11-24T01:19:25.591Z,8.89
2022-11-24T01:21:52.712Z,8.81
2022-11-24T01:24:19.417Z,8.76
2022-11-24T01:26:46.332Z,8.75
2022-11-24T01:29:13.128Z,8.67
2022-11-24T01:31:39.622Z,8.63
2022-11-24T01:34:06.466Z,8.66
2022-11-24T01:36:33.755Z,8.61
2022-11-24T01:39:00.557Z,8.55
2022-11-24T01:41:27.641Z,8.56
2022-11-24T01:43:56.111Z,8.54
2022-11-24T01:46:43.076Z,8.47
2022-11-24T01:49:18.059Z,8.52
2022-11-24T01:51:51.411Z,8.52
2022-11-24T01:54:27.565Z,8.48
2022-11-24T01:57:00.380Z,8.44
2022-11-24T01:59:27.093Z,8.58
2022-11-24T02:01:56.066Z,8.47
2022-11-24T02:04:28.537Z,8.47
2022-11-24T02:06:59.449Z,8.47
2022-11-24T02:09:37.451Z,8.49
2022-11-24T02:12:04.650Z,8.55
2022-11-24T02:14:31.394Z,8.48
2022-11-24T02:16:58.167Z,8.56
2022-11-24T02:19:39.778Z,8.57
2022-11-24T02:22:36.866Z,8.61
2022-11-24T02:25:13.815Z,8.80
2022-11-24T02:27:43.070Z,8.90
2022-11-24T02:30:10.014Z,8.95
2022-11-24T02:32:40.224Z,8.94
2022-11-24T02:35:09.564Z,9.04
2022-11-24T02:37:36.293Z,9.09
2022-11-24T02:40:03.624Z,9.13
2022-11-24T02:42:34.753Z,9.06
2022-11-24T02:45:01.713Z,9.11
2022-11-24T02:47:28.812Z,9.12
2022-11-24T02:49:55.374Z,9.10
2022-11-24T02:52:21.872Z,9.16
2022-11-24T02:54:48.373Z,9.14
2022-11-24T02:57:15.226Z,9.20
2022-11-24T02:59:41.841Z,9.16
2022-11-24T03:02:10.360Z,9.12
2022-11-24T03:04:37.192Z,9.21
2022-11-24T03:07:03.903Z,9.27
2022-11-24T03:09:30.742Z,9.32
2022-11-24T03:11:57.362Z,9.38
2022-11-24T03:14:24.346Z,9.40
2022-11-24T03:16:50.877Z,9.41
2022-11-24T03:19:17.388Z,9.36
2022-11-24T03:21:43.971Z,9.30
2022-11-24T03:24:10.584Z,9.42
2022-11-24T03:26:37.211Z,9.33
2022-11-24T03:29:03.914Z,9.42
2022-11-24T03:31:30.569Z,9.38
2022-11-24T03:33:57.312Z,9.45
2022-11-24T03:36:23.927Z,9.46
2022-11-24T03:38:50.529Z,9.46
2022-11-24T03:41:17.175Z,9.46
2022-11-24T03:43:44.439Z,9.54
2022-11-24T03:46:12.580Z,9.48
2022-11-24T03:48:39.621Z,9.53
2022-11-24T03:51:06.740Z,9.53
2022-11-24T03:53:33.677Z,9.53
2022-11-24T03:56:00.821Z,9.54
2022-11-24T03:58:27.864Z,9.61
2022-11-24T04:00:54.925Z,9.53
2022-11-24T04:03:21.923Z,9.57
2022-11-24T04:05:48.839Z,9.56
2022-11-24T04:08:16.130Z,9.54
2022-11-24T04:10:43.019Z,9.54
2022-11-24T04:13:17.339Z,9.27
2022-11-24T04:15:44.273Z,9.27
2022-11-24T04:18:12.271Z,9.26
2022-11-24T04:20:40.315Z,9.17
2022-11-24T04:23:07.831Z,9.11
2022-11-24T04:25:34.900Z,9.09
2022-11-24T04:28:01.609Z,9.03
2022-11-24T04:30:29.115Z,8.94
2022-11-24T04:32:56.979Z,8.81
2022-11-24T04:35:24.378Z,8.91
2022-11-24T04:37:51.257Z,8.84
2022-11-24T04:40:17.864Z,8.91
2022-11-24T04:42:44.408Z,8.86
2022-11-24T04:45:11.238Z,8.85
2022-11-24T04:47:38.331Z,8.83
2022-11-24T04:50:07.709Z,8.76
2022-11-24T04:52:34.416Z,8.89
2022-11-24T04:55:01.325Z,8.87
2022-11-24T04:57:27.893Z,8.88
2022-11-24T04:59:55.102Z,8.91
2022-11-24T05:02:22.237Z,8.93
2022-11-24T05:04:48.871Z,8.89
2022-11-24T05:07:18.786Z,8.96
2022-11-24T05:10:05.410Z,8.93
2022-11-24T05:12:32.050Z,8.94
2022-11-24T05:15:00.060Z,8.92
2022-11-24T05:17:35.596Z,8.92
2022-11-24T05:20:03.058Z,8.98
2022-11-24T05:22:29.718Z,8.99
2022-11-24T05:24:56.382Z,8.97
2022-11-24T05:27:23.522Z,8.99
2022-11-24T05:29:50.297Z,8.95
2022-11-24T05:32:16.970Z,8.92
2022-11-24T05:34:43.690Z,8.97
2022-11-24T05:37:10.299Z,8.94
2022-11-24T05:39:37.477Z,8.96
2022-11-24T05:42:24.613Z,9.00
2022-11-24T05:44:52.365Z,9.00
2022-11-24T05:47:19.868Z,8.90
2022-11-24T05:49:46.833Z,8.99
2022-11-24T05:52:13.928Z,9.13
2022-11-24T05:54:40.565Z,9.07
2022-11-24T05:57:07.417Z,9.06
2022-11-24T05:59:34.069Z,9.04
2022-11-24T06:02:01.155Z,9.03
2022-11-24T06:04:28.298Z,9.03
2022-11-24T06:06:54.889Z,9.05
2022-11-24T06:09:21.332Z,9.00
2022-11-24T06:11:48.743Z,8.96
2022-11-24T06:14:15.465Z,8.95
2022-11-24T06:16:42.366Z,8.99
2022-11-24T06:19:10.224Z,9.00
2022-11-24T06:21:36.959Z,8.98
2022-11-24T06:24:04.262Z,8.96
2022-11-24T06:26:30.914Z,8.83
2022-11-24T06:28:57.574Z,8.61
2022-11-24T06:31:24.443Z,8.49
2022-11-24T06:33:51.412Z,8.47
2022-11-24T06:36:18.014Z,8.44
2022-11-24T06:38:44.556Z,8.44
2022-11-24T06:41:14.375Z,8.43
2022-11-24T06:43:41.693Z,8.45
2022-11-24T06:46:08.634Z,8.32
2022-11-24T06:48:35.563Z,8.32
2022-11-24T06:51:07.590Z,8.23
2022-11-24T06:53:39.635Z,8.24
2022-11-24T06:56:15.320Z,8.34
2022-11-24T06:58:49.019Z,8.43
2022-11-24T07:01:17.786Z,8.57
2022-11-24T07:03:45.165Z,8.60
2022-11-24T07:06:11.797Z,8.73
2022-11-24T07:08:38.497Z,8.55
2022-11-24T07:11:06.655Z,8.56
2022-11-24T07:13:33.956Z,8.48
2022-11-24T07:16:10.156Z,8.31
2022-11-24T07:18:36.841Z,8.10
2022-11-24T07:21:06.957Z,8.11
2022-11-24T07:23:33.786Z,8.06
2022-11-24T07:26:06.849Z,7.97
2022-11-24T07:28:34.809Z,7.92
2022-11-24T07:31:09.245Z,7.86
2022-11-24T07:33:36.804Z,7.82
2022-11-24T07:36:05.546Z,7.80
2022-11-24T07:38:33.346Z,7.91
2022-11-24T07:41:08.698Z,7.79
2022-11-24T07:43:37.560Z,7.77
2022-11-24T07:46:06.241Z,7.74
2022-11-24T07:48:33.984Z,7.72
2022-11-24T07:51:02.729Z,7.82
2022-11-24T07:53:30.804Z,7.90
2022-11-24T07:56:00.467Z,7.76
2022-11-24T07:58:32.697Z,7.87
2022-11-24T08:01:01.267Z,7.89
2022-11-24T08:03:28.258Z,8.00
2022-11-24T08:06:23.022Z,7.88
2022-11-24T08:08:47.737Z,7.91
2022-11-24T08:11:18.071Z,7.86
2022-11-24T08:13:45.714Z,7.89
2022-11-24T08:16:15.330Z,7.91
2022-11-24T08:18:43.230Z,8.04
2022-11-24T08:21:14.183Z,7.98
2022-11-24T08:23:41.899Z,7.93
2022-11-24T08:26:14.346Z,7.99
2022-11-24T08:28:42.152Z,8.04
2022-11-24T08:31:12.923Z,8.14
2022-11-24T08:33:41.137Z,7.98
2022-11-24T08:36:16.033Z,8.04
2022-11-24T08:38:44.788Z,8.07
2022-11-24T08:41:16.462Z,8.05
2022-11-24T08:43:46.113Z,8.13
2022-11-24T08:46:17.164Z,8.22
2022-11-24T08:48:51.521Z,8.17
2022-11-24T08:51:22.469Z,8.30
2022-11-24T08:53:49.325Z,8.42
2022-11-24T08:56:16.060Z,8.40
2022-11-24T08:58:43.250Z,8.37
2022-11-24T09:01:15.526Z,8.40
2022-11-24T09:03:49.973Z,8.46
2022-11-24T09:06:22.832Z,8.56
2022-11-24T09:08:56.843Z,8.58
2022-11-24T09:11:25.772Z,8.75
2022-11-24T09:13:54.102Z,8.69
2022-11-24T09:16:29.035Z,8.53
2022-11-24T09:19:05.825Z,8.67
2022-11-24T09:21:34.552Z,8.71
2022-11-24T09:24:01.331Z,8.88
2022-11-24T09:26:32.107Z,8.85
2022-11-24T09:29:00.479Z,8.96
2022-11-24T09:31:29.888Z,8.90
2022-11-24T09:33:59.606Z,8.93
2022-11-24T09:36:26.564Z,9.02
2022-11-24T09:38:53.528Z,9.21
2022-11-24T09:41:39.375Z,9.27
2022-11-24T09:44:16.962Z,9.32
2022-11-24T09:47:01.587Z,9.26
2022-11-24T09:49:51.088Z,9.42
2022-11-24T09:52:37.910Z,9.48
2022-11-24T09:55:14.056Z,9.43
2022-11-24T09:57:43.873Z,9.53
2022-11-24T10:00:13.241Z,9.45
2022-11-24T10:02:40.298Z,9.62
2022-11-24T10:05:08.661Z,9.54
2022-11-24T10:07:50.357Z,9.55
2022-11-24T10:10:29.566Z,9.63
2022-11-24T10:13:16.607Z,9.85
2022-11-24T10:16:05.025Z,9.96
2022-11-24T10:18:45.733Z,10.01
2022-11-24T10:21:47.408Z,10.03
2022-11-24T10:24:17.189Z,10.05
2022-11-24T10:26:56.869Z,10.10
2022-11-24T10:29:37.285Z,10.21
2022-11-24T10:32:14.756Z,10.22
2022-11-24T10:34:46.986Z,10.21
2022-11-24T10:37:21.310Z,10.31
2022-11-24T10:40:04.116Z,10.36
2022-11-24T10:42:36.848Z,10.41
2022-11-24T10:45:18.541Z,10.23
2022-11-24T10:47:46.932Z,10.44
2022-11-24T10:50:37.017Z,10.52
2022-11-24T10:53:22.589Z,10.59
2022-11-24T10:55:55.736Z,10.61
2022-11-24T10:58:26.481Z,10.64
2022-11-24T11:00:54.876Z,10.61
2022-11-24T11:03:24.713Z,10.67
2022-11-24T11:05:54.603Z,10.70
2022-11-24T11:08:32.644Z,10.82
2022-11-24T11:11:28.239Z,10.86
2022-11-24T11:14:03.431Z,10.93
2022-11-24T11:16:34.098Z,11.04
2022-11-24T11:19:15.711Z,11.01
2022-11-24T11:22:03.409Z,11.07
2022-11-24T11:24:30.814Z,11.10
2022-11-24T11:27:24.977Z,11.09
2022-11-24T11:35:40.587Z,11.20
2022-11-24T11:38:12.266Z,11.17
2022-11-24T11:40:42.899Z,11.21
2022-11-24T11:43:27.180Z,11.25
2022-11-24T11:46:29.040Z,11.38
2022-11-24T11:48:56.411Z,11.47
2022-11-24T11:51:32.918Z,11.43
2022-11-24T11:54:22.681Z,11.51
2022-11-24T11:56:58.779Z,11.42
2022-11-24T11:59:34.734Z,11.53
2022-11-24T12:02:29.618Z,11.61
2022-11-24T12:05:16.096Z,11.66
2022-11-24T12:08:25.156Z,11.73
2022-11-24T12:11:20.244Z,11.70
2022-11-24T12:14:04.329Z,11.80
2022-11-24T12:17:19.943Z,11.88
2022-11-24T12:20:02.007Z,11.93
2022-11-24T12:22:38.168Z,11.99
2022-11-24T12:26:02.345Z,11.94
2022-11-24T12:29:06.734Z,11.93
2022-11-24T12:32:01.485Z,12.05
2022-11-24T12:34:39.900Z,12.00
2022-11-24T12:37:24.424Z,12.02
2022-11-24T12:40:05.805Z,11.93
2022-11-24T12:42:59.503Z,12.11
2022-11-24T12:45:42.856Z,12.12
2022-11-24T12:48:12.325Z,12.12
2022-11-24T12:50:42.013Z,12.00
2022-11-24T12:53:19.955Z,12.09
2022-11-24T12:55:47.268Z,12.18
2022-11-24T12:58:32.891Z,12.15
2022-11-24T13:01:19.687Z,12.12
2022-11-24T13:03:59.558Z,12.23
2022-11-24T13:06:52.892Z,12.11
2022-11-24T13:09:20.462Z,12.15
2022-11-24T13:11:50.367Z,12.09
2022-11-24T13:14:30.819Z,12.04
2022-11-24T13:17:27.891Z,12.18
2022-11-24T13:19:49.239Z,12.16
2022-11-24T13:22:25.178Z,12.14
2022-11-24T13:25:13.520Z,12.21
2022-11-24T13:27:55.491Z,12.20
2022-11-24T13:30:37.151Z,12.19
2022-11-24T13:33:16.974Z,12.15
2022-11-24T13:36:02.573Z,12.10
2022-11-24T13:38:52.996Z,11.92
2022-11-24T13:41:32.686Z,12.00
2022-11-24T13:44:42.693Z,12.02
2022-11-24T13:47:31.538Z,12.00
2022-11-24T13:49:59.209Z,12.02
2022-11-24T13:52:58.465Z,11.99
2022-11-24T13:55:29.855Z,11.88
2022-11-24T13:58:24.546Z,11.95
2022-11-24T14:01:28.451Z,11.90
2022-11-24T14:04:43.425Z,12.04
2022-11-24T14:07:14.466Z,11.97
2022-11-24T14:09:48.440Z,12.08
2022-11-24T14:12:25.004Z,11.90
2022-11-24T14:14:59.888Z,11.88
2022-11-24T14:17:28.789Z,11.81
2022-11-24T14:19:58.752Z,11.68
2022-11-24T14:22:44.736Z,11.48
2022-11-24T14:28:30.856Z,11.53
2022-11-24T14:31:22.088Z,11.49
2022-11-24T14:34:14.674Z,11.31
2022-11-24T14:36:45.315Z,11.21
2022-11-24T14:39:20.059Z,11.26
2022-11-24T14:42:22.711Z,11.34
2022-11-24T14:45:06.022Z,11.34
2022-11-24T14:47:37.495Z,11.36
2022-11-24T14:50:18.566Z,11.32
2022-11-24T14:52:59.012Z,11.28
2022-11-24T14:55:33.737Z,11.18
2022-11-24T14:58:02.211Z,11.20
2022-11-24T15:00:33.770Z,11.28
2022-11-24T15:03:02.811Z,11.20
2022-11-24T15:05:57.280Z,11.01
2022-11-24T15:08:28.143Z,10.86
2022-11-24T15:11:01.447Z,10.84
2022-11-24T15:13:33.892Z,10.97
2022-11-24T15:16:07.088Z,11.04
2022-11-24T15:18:59.846Z,10.86
2022-11-24T15:21:37.284Z,10.75
2022-11-24T15:24:15.159Z,10.78
2022-11-24T15:26:44.448Z,10.62
2022-11-24T15:29:16.347Z,10.58
2022-11-24T15:31:52.588Z,10.63
2022-11-24T15:34:26.473Z,10.53
2022-11-24T15:36:53.669Z,10.57
2022-11-24T15:39:28.445Z,10.44
2022-11-24T15:41:55.656Z,10.47
2022-11-24T15:44:22.425Z,10.40
2022-11-24T15:46:51.798Z,10.34
2022-11-24T15:49:18.982Z,10.16
2022-11-24T15:51:46.973Z,10.16
2022-11-24T15:54:17.501Z,10.19
2022-11-24T15:56:47.270Z,10.26
2022-11-24T15:59:20.257Z,10.23
2022-11-24T16:01:51.978Z,10.04
2022-11-24T16:04:19.662Z,9.99
2022-11-24T16:06:46.740Z,10.06
2022-11-24T16:09:19.212Z,10.00
2022-11-24T16:11:46.787Z,9.91
2022-11-24T16:14:15.320Z,9.87
2022-11-24T16:16:42.769Z,9.81
2022-11-24T16:19:12.638Z,9.89
2022-11-24T16:21:40.995Z,9.88
2022-11-24T16:24:11.532Z,9.79
2022-11-24T16:26:40.819Z,9.71
2022-11-24T16:29:07.612Z,9.64
2022-11-24T16:31:38.629Z,9.64
2022-11-24T16:34:10.098Z,9.54
2022-11-24T16:39:22.647Z,9.76
2022-11-24T16:41:50.372Z,9.75
2022-11-24T16:44:31.459Z,9.75
2022-11-24T16:47:18.963Z,9.77
2022-11-24T16:49:49.033Z,9.77
2022-11-24T16:52:17.008Z,9.81
2022-11-24T16:54:46.053Z,9.76
2022-11-24T16:57:16.507Z,9.75
2022-11-24T16:59:46.819Z,9.77
2022-11-24T17:02:14.169Z,9.84
2022-11-24T17:04:41.182Z,9.81
2022-11-24T17:07:11.421Z,9.76
2022-11-24T17:09:45.485Z,9.70
2022-11-24T17:12:17.008Z,9.76
2022-11-24T17:17:28.711Z,9.74
2022-11-24T17:19:56.732Z,9.66
2022-11-24T17:22:23.989Z,9.83
2022-11-24T17:24:59.920Z,9.76
2022-11-24T17:27:28.047Z,9.80
2022-11-24T17:29:56.072Z,9.77
2022-11-24T17:32:26.789Z,9.90
2022-11-24T17:35:01.388Z,9.86
2022-11-24T17:37:33.823Z,9.81
2022-11-24T17:40:26.881Z,9.80
2022-11-24T17:42:46.939Z,9.74
2022-11-24T17:45:13.800Z,9.76
2022-11-24T17:47:40.400Z,9.76
2022-11-24T17:50:07.709Z,9.55
2022-11-24T17:52:34.372Z,9.60
2022-11-24T17:55:01.189Z,9.61
2022-11-24T17:57:28.454Z,9.59
2022-11-24T17:59:55.320Z,9.58
2022-11-24T18:02:22.004Z,9.52
2022-11-24T18:04:48.567Z,9.49
2022-11-24T18:07:15.167Z,9.40
2022-11-24T18:09:41.717Z,9.34
2022-11-24T18:12:08.545Z,9.31
2022-11-24T18:14:35.470Z,9.36
2022-11-24T18:17:02.354Z,9.28
2022-11-24T18:19:28.978Z,9.31
2022-11-24T18:21:55.901Z,9.32
2022-11-24T18:24:24.203Z,9.31
2022-11-24T18:26:52.543Z,9.26
2022-11-24T18:29:21.875Z,9.30
2022-11-24T18:31:48.659Z,9.24
2022-11-24T18:34:17.688Z,9.12
2022-11-24T18:36:45.207Z,9.18
2022-11-24T18:39:17.741Z,9.11
2022-11-24T18:41:45.272Z,9.11
2022-11-24T18:44:12.265Z,9.04
2022-11-24T18:46:39.120Z,9.14
2022-11-24T18:49:07.110Z,9.07
2022-11-24T18:51:34.089Z,9.15
2022-11-24T18:54:02.953Z,9.24
2022-11-24T18:56:30.637Z,9.22
2022-11-24T18:58:57.516Z,9.22
2022-11-24T19:01:27.333Z,9.21
2022-11-24T19:03:56.708Z,9.12
2022-11-24T19:06:33.222Z,9.21
2022-11-24T19:09:08.780Z,9.21
2022-11-24T19:11:38.867Z,9.21
2022-11-24T19:14:06.819Z,9.18
2022-11-24T19:16:34.263Z,9.20
2022-11-24T19:19:02.680Z,9.13
2022-11-24T19:21:37.073Z,9.23
2022-11-24T19:24:05.912Z,9.18
2022-11-24T19:26:35.080Z,9.16
2022-11-24T19:29:03.109Z,9.18
2022-11-24T19:31:30.246Z,9.11
2022-11-24T19:33:58.647Z,9.10
2022-11-24T19:36:26.291Z,9.14
2022-11-24T19:38:55.118Z,9.15
2022-11-24T19:41:24.335Z,9.24
2022-11-24T19:43:53.478Z,9.25
2022-11-24T19:46:21.866Z,9.19
2022-11-24T19:48:54.026Z,9.24
2022-11-24T19:51:26.519Z,9.22
2022-11-24T19:53:54.185Z,9.22
2022-11-24T19:56:23.028Z,9.24
2022-11-24T19:58:51.068Z,9.26
2022-11-24T20:01:26.390Z,9.39
2022-11-24T20:04:00.744Z,9.48
2022-11-24T20:06:30.220Z,9.34
2022-11-24T20:09:01.481Z,9.60
2022-11-24T20:11:29.323Z,9.61
2022-11-24T20:13:57.083Z,9.64
2022-11-24T20:16:30.791Z,9.36
2022-11-24T20:18:58.632Z,9.62
2022-11-24T20:21:33.746Z,9.60
2022-11-24T20:24:03.067Z,9.54
2022-11-24T20:26:33.420Z,9.70
2022-11-24T20:29:00.972Z,9.62
2022-11-24T20:31:31.462Z,9.74
2022-11-24T20:34:01.415Z,9.63
2022-11-24T20:36:31.021Z,9.70
2022-11-24T20:39:01.066Z,9.62
2022-11-24T20:41:30.878Z,9.83
2022-11-24T20:44:00.790Z,9.89
2022-11-24T20:46:31.796Z,9.93
2022-11-24T20:49:00.099Z,9.98
2022-11-24T20:51:29.198Z,9.99
2022-11-24T20:53:58.777Z,10.02
2022-11-24T20:56:28.701Z,9.99
2022-11-24T20:58:56.495Z,10.02
2022-11-24T21:01:26.539Z,10.10
2022-11-24T21:03:57.438Z,10.03
2022-11-24T21:06:28.030Z,10.08
2022-11-24T21:09:00.495Z,10.18
2022-11-24T21:11:30.279Z,10.08
2022-11-24T21:13:56.992Z,9.99
2022-11-24T21:16:27.661Z,10.04
2022-11-24T21:19:06.546Z,9.95
2022-11-24T21:21:35.385Z,10.09
2022-11-24T21:24:04.529Z,10.06
2022-11-24T21:26:31.399Z,9.99
2022-11-24T21:28:58.297Z,10.05
2022-11-24T21:31:25.094Z,10.08
2022-11-24T21:33:54.024Z,9.94
2022-11-24T21:36:26.440Z,9.94
2022-11-24T21:38:58.370Z,10.10
2022-11-24T21:41:27.216Z,10.20
2022-11-24T21:43:57.410Z,10.11
2022-11-24T21:46:24.793Z,10.12
2022-11-24T21:48:51.546Z,10.16
2022-11-24T21:51:20.826Z,10.03
2022-11-24T21:53:48.218Z,10.08
2022-11-24T21:56:20.426Z,10.00
2022-11-24T21:58:49.916Z,10.09
2022-11-24T22:01:20.940Z,10.17
2022-11-24T22:03:47.881Z,10.17
2022-11-24T22:06:16.699Z,10.26
2022-11-24T22:08:43.697Z,10.28
2022-11-24T22:11:13.991Z,10.42
2022-11-24T22:13:44.639Z,10.49
2022-11-24T22:16:13.875Z,10.57
2022-11-24T22:18:42.344Z,10.64
2022-11-24T22:21:12.504Z,10.64
2022-11-24T22:23:39.301Z,10.65
2022-11-24T22:26:11.166Z,10.66
2022-11-24T22:28:38.776Z,10.56
2022-11-24T22:31:29.005Z,10.76
2022-11-24T22:33:57.709Z,10.72
2022-11-24T22:36:29.109Z,10.72
2022-11-24T22:38:58.268Z,10.74
2022-11-24T22:41:25.508Z,10.77
2022-11-24T22:43:52.325Z,10.84
2022-11-24T22:46:24.311Z,10.75
2022-11-24T22:48:55.578Z,10.76
2022-11-24T22:51:26.989Z,10.69
2022-11-24T22:53:56.069Z,10.77
2022-11-24T22:56:23.935Z,10.69
2022-11-24T22:58:51.346Z,10.65
2022-11-24T23:01:23.461Z,10.76
2022-11-24T23:03:53.680Z,10.69
2022-11-24T23:06:22.577Z,10.61
2022-11-24T23:08:50.443Z,10.69
2022-11-24T23:11:27.374Z,10.70
2022-11-24T23:13:58.020Z,10.49
2022-11-24T23:16:25.024Z,10.71
2022-11-24T23:18:54.027Z,10.57
2022-11-24T23:21:26.752Z,10.69
2022-11-24T23:23:54.459Z,10.56
2022-11-24T23:26:24.168Z,10.61
2022-11-24T23:28:51.340Z,10.65
2022-11-24T23:31:21.508Z,10.55
2022-11-24T23:33:48.689Z,10.56
2022-11-24T23:36:17.789Z,10.61
2022-11-24T23:38:45.071Z,10.58
2022-11-24T23:41:14.477Z,10.57
2022-11-24T23:43:42.468Z,10.50
2022-11-24T23:46:15.847Z,10.66
2022-11-24T23:48:43.389Z,10.67
2022-11-24T23:51:18.608Z,10.62
2022-11-24T23:53:45.664Z,10.63
2022-11-24T23:56:14.579Z,10.71
2022-11-24T23:58:41.430Z,10.58
